sensor_id;sensor_type;location;lat;lon;timestamp;P1;durP1;ratioP1;P2;durP2;ratioP2
52564;SDS011;38460;53.106;7.004;2023-03-14T00:00:57;18.77;;;5.00;;
52564;SDS011;38460;53.106;7.004;2023-03-14T00:03:23;16.80;;;5.43;;
52564;SDS011;38460;53.106;7.004;2023-03-14T00:05:49;18.40;;;4.88;;
52564;SDS011;38460;53.106;7.004;2023-03-14T00:08:15;13.70;;;5.55;;
52564;SDS011;38460;53.106;7.004;2023-03-14T00:10:41;18.50;;;4.53;;
52564;SDS011;38460;53.106;7.004;2023-03-14T00:13:06;14.52;;;4.45;;
52564;SDS011;38460;53.106;7.004;2023-03-14T00:15:33;16.50;;;4.30;;
52564;SDS011;38460;53.106;7.004;2023-03-14T00:18:00;16.80;;;5.43;;
52564;SDS011;38460;53.106;7.004;2023-03-14T00:20:25;15.10;;;5.43;;
52564;SDS011;38460;53.106;7.004;2023-03-14T00:22:52;13.95;;;5.10;;
52564;SDS011;38460;53.106;7.004;2023-03-14T00:25:17;13.20;;;4.43;;
52564;SDS011;38460;53.106;7.004;2023-03-14T00:27:43;15.02;;;5.15;;
52564;SDS011;38460;53.106;7.004;2023-03-14T00:30:09;13.20;;;4.30;;
52564;SDS011;38460;53.106;7.004;2023-03-14T00:32:35;19.30;;;6.05;;
52564;SDS011;38460;53.106;7.004;2023-03-14T00:35:02;14.68;;;4.25;;
52564;SDS011;38460;53.106;7.004;2023-03-14T00:37:28;10.93;;;3.90;;
52564;SDS011;38460;53.106;7.004;2023-03-14T00:39:54;20.05;;;5.60;;
52564;SDS011;38460;53.106;7.004;2023-03-14T00:42:20;16.55;;;5.10;;
52564;SDS011;38460;53.106;7.004;2023-03-14T00:44:46;12.90;;;3.67;;
52564;SDS011;38460;53.106;7.004;2023-03-14T00:47:11;16.73;;;5.50;;
52564;SDS011;38460;53.106;7.004;2023-03-14T00:49:37;14.48;;;4.93;;
52564;SDS011;38460;53.106;7.004;2023-03-14T00:52:03;12.18;;;4.75;;
52564;SDS011;38460;53.106;7.004;2023-03-14T00:54:29;12.30;;;4.35;;
52564;SDS011;38460;53.106;7.004;2023-03-14T00:56:55;15.00;;;5.28;;
52564;SDS011;38460;53.106;7.004;2023-03-14T00:59:21;17.35;;;4.78;;
52564;SDS011;38460;53.106;7.004;2023-03-14T01:01:47;14.57;;;4.00;;
52564;SDS011;38460;53.106;7.004;2023-03-14T01:04:12;16.17;;;5.30;;
52564;SDS011;38460;53.106;7.004;2023-03-14T01:06:38;13.98;;;4.10;;
52564;SDS011;38460;53.106;7.004;2023-03-14T01:09:04;15.45;;;4.63;;
52564;SDS011;38460;53.106;7.004;2023-03-14T01:11:31;19.77;;;4.43;;
52564;SDS011;38460;53.106;7.004;2023-03-14T01:13:58;12.98;;;4.57;;
52564;SDS011;38460;53.106;7.004;2023-03-14T01:16:25;15.32;;;5.30;;
52564;SDS011;38460;53.106;7.004;2023-03-14T01:18:52;13.10;;;4.68;;
52564;SDS011;38460;53.106;7.004;2023-03-14T01:23:46;12.00;;;4.70;;
52564;SDS011;38460;53.106;7.004;2023-03-14T01:26:13;11.77;;;4.40;;
52564;SDS011;38460;53.106;7.004;2023-03-14T01:28:44;12.93;;;4.55;;
52564;SDS011;38460;53.106;7.004;2023-03-14T01:31:10;11.60;;;4.55;;
52564;SDS011;38460;53.106;7.004;2023-03-14T01:33:36;13.45;;;4.63;;
52564;SDS011;38460;53.106;7.004;2023-03-14T01:36:03;11.25;;;4.78;;
52564;SDS011;38460;53.106;7.004;2023-03-14T01:38:29;10.85;;;4.93;;
52564;SDS011;38460;53.106;7.004;2023-03-14T01:40:56;11.52;;;4.82;;
52564;SDS011;38460;53.106;7.004;2023-03-14T01:43:23;10.93;;;4.55;;
52564;SDS011;38460;53.106;7.004;2023-03-14T01:48:34;12.57;;;5.15;;
52564;SDS011;38460;53.106;7.004;2023-03-14T01:51:07;14.43;;;5.82;;
52564;SDS011;38460;53.106;7.004;2023-03-14T01:53:36;15.25;;;5.90;;
52564;SDS011;38460;53.106;7.004;2023-03-14T01:56:04;10.73;;;4.68;;
52564;SDS011;38460;53.106;7.004;2023-03-14T01:58:31;11.35;;;4.65;;
52564;SDS011;38460;53.106;7.004;2023-03-14T02:01:02;16.00;;;6.38;;
52564;SDS011;38460;53.106;7.004;2023-03-14T02:03:29;12.05;;;5.43;;
52564;SDS011;38460;53.106;7.004;2023-03-14T02:05:59;12.02;;;4.28;;
52564;SDS011;38460;53.106;7.004;2023-03-14T02:08:31;12.45;;;4.40;;
52564;SDS011;38460;53.106;7.004;2023-03-14T02:10:58;16.33;;;5.20;;
52564;SDS011;38460;53.106;7.004;2023-03-14T02:13:24;10.88;;;4.22;;
52564;SDS011;38460;53.106;7.004;2023-03-14T02:15:50;14.68;;;5.25;;
52564;SDS011;38460;53.106;7.004;2023-03-14T02:18:16;16.15;;;4.68;;
52564;SDS011;38460;53.106;7.004;2023-03-14T02:24:13;8.45;;;3.95;;
52564;SDS011;38460;53.106;7.004;2023-03-14T02:26:27;11.52;;;4.13;;
52564;SDS011;38460;53.106;7.004;2023-03-14T02:28:59;12.57;;;4.40;;
52564;SDS011;38460;53.106;7.004;2023-03-14T02:31:25;10.50;;;4.80;;
52564;SDS011;38460;53.106;7.004;2023-03-14T02:33:51;11.38;;;3.42;;
52564;SDS011;38460;53.106;7.004;2023-03-14T02:36:17;10.45;;;4.07;;
52564;SDS011;38460;53.106;7.004;2023-03-14T02:39:06;11.68;;;3.67;;
52564;SDS011;38460;53.106;7.004;2023-03-14T02:41:39;11.32;;;3.65;;
52564;SDS011;38460;53.106;7.004;2023-03-14T02:44:04;10.40;;;3.50;;
52564;SDS011;38460;53.106;7.004;2023-03-14T02:46:30;9.18;;;3.40;;
52564;SDS011;38460;53.106;7.004;2023-03-14T02:48:58;8.48;;;3.70;;
52564;SDS011;38460;53.106;7.004;2023-03-14T02:51:28;12.13;;;3.20;;
52564;SDS011;38460;53.106;7.004;2023-03-14T02:53:54;9.48;;;3.72;;
52564;SDS011;38460;53.106;7.004;2023-03-14T02:56:20;8.77;;;3.00;;
52564;SDS011;38460;53.106;7.004;2023-03-14T02:58:46;9.63;;;3.42;;
52564;SDS011;38460;53.106;7.004;2023-03-14T03:01:12;11.32;;;3.38;;
52564;SDS011;38460;53.106;7.004;2023-03-14T03:03:37;8.82;;;3.40;;
52564;SDS011;38460;53.106;7.004;2023-03-14T03:06:03;10.85;;;3.85;;
52564;SDS011;38460;53.106;7.004;2023-03-14T03:08:29;8.48;;;3.50;;
52564;SDS011;38460;53.106;7.004;2023-03-14T03:10:56;11.30;;;4.57;;
52564;SDS011;38460;53.106;7.004;2023-03-14T03:13:23;9.40;;;3.30;;
52564;SDS011;38460;53.106;7.004;2023-03-14T03:15:48;9.32;;;3.42;;
52564;SDS011;38460;53.106;7.004;2023-03-14T03:18:14;12.07;;;4.43;;
52564;SDS011;38460;53.106;7.004;2023-03-14T03:20:40;10.43;;;3.97;;
52564;SDS011;38460;53.106;7.004;2023-03-14T03:23:06;9.88;;;3.60;;
52564;SDS011;38460;53.106;7.004;2023-03-14T03:25:32;10.98;;;4.65;;
52564;SDS011;38460;53.106;7.004;2023-03-14T03:27:57;12.77;;;4.60;;
52564;SDS011;38460;53.106;7.004;2023-03-14T03:30:23;10.68;;;5.03;;
52564;SDS011;38460;53.106;7.004;2023-03-14T03:32:49;8.20;;;4.18;;
52564;SDS011;38460;53.106;7.004;2023-03-14T03:35:15;8.73;;;3.75;;
52564;SDS011;38460;53.106;7.004;2023-03-14T03:37:41;9.48;;;3.90;;
52564;SDS011;38460;53.106;7.004;2023-03-14T03:40:07;12.57;;;3.85;;
52564;SDS011;38460;53.106;7.004;2023-03-14T03:42:34;12.68;;;3.97;;
52564;SDS011;38460;53.106;7.004;2023-03-14T03:45:00;7.90;;;3.25;;
52564;SDS011;38460;53.106;7.004;2023-03-14T03:47:26;11.57;;;4.10;;
52564;SDS011;38460;53.106;7.004;2023-03-14T03:49:52;10.35;;;3.90;;
52564;SDS011;38460;53.106;7.004;2023-03-14T03:52:18;7.72;;;3.92;;
52564;SDS011;38460;53.106;7.004;2023-03-14T03:54:45;7.93;;;4.15;;
52564;SDS011;38460;53.106;7.004;2023-03-14T03:57:11;11.25;;;3.60;;
52564;SDS011;38460;53.106;7.004;2023-03-14T03:59:37;9.02;;;3.33;;
52564;SDS011;38460;53.106;7.004;2023-03-14T04:02:05;7.45;;;3.03;;
52564;SDS011;38460;53.106;7.004;2023-03-14T04:04:31;9.63;;;3.30;;
52564;SDS011;38460;53.106;7.004;2023-03-14T04:06:56;6.30;;;3.25;;
52564;SDS011;38460;53.106;7.004;2023-03-14T04:09:22;7.75;;;3.33;;
52564;SDS011;38460;53.106;7.004;2023-03-14T04:11:48;8.15;;;4.15;;
52564;SDS011;38460;53.106;7.004;2023-03-14T04:14:14;10.55;;;3.50;;
52564;SDS011;38460;53.106;7.004;2023-03-14T04:16:39;14.15;;;4.22;;
52564;SDS011;38460;53.106;7.004;2023-03-14T04:19:05;7.47;;;4.43;;
52564;SDS011;38460;53.106;7.004;2023-03-14T04:21:31;8.80;;;3.60;;
52564;SDS011;38460;53.106;7.004;2023-03-14T04:23:57;7.80;;;4.50;;
52564;SDS011;38460;53.106;7.004;2023-03-14T04:26:22;9.55;;;4.68;;
52564;SDS011;38460;53.106;7.004;2023-03-14T04:28:48;11.57;;;4.32;;
52564;SDS011;38460;53.106;7.004;2023-03-14T04:31:16;14.27;;;4.93;;
52564;SDS011;38460;53.106;7.004;2023-03-14T04:33:43;9.88;;;4.63;;
52564;SDS011;38460;53.106;7.004;2023-03-14T04:36:09;11.38;;;4.05;;
52564;SDS011;38460;53.106;7.004;2023-03-14T04:38:36;7.55;;;4.22;;
52564;SDS011;38460;53.106;7.004;2023-03-14T04:41:01;13.07;;;4.80;;
52564;SDS011;38460;53.106;7.004;2023-03-14T04:43:27;9.20;;;4.40;;
52564;SDS011;38460;53.106;7.004;2023-03-14T04:45:54;9.23;;;4.43;;
52564;SDS011;38460;53.106;7.004;2023-03-14T04:48:21;8.45;;;4.53;;
52564;SDS011;38460;53.106;7.004;2023-03-14T04:50:47;9.88;;;5.13;;
52564;SDS011;38460;53.106;7.004;2023-03-14T04:53:14;10.73;;;4.65;;
52564;SDS011;38460;53.106;7.004;2023-03-14T04:55:40;9.45;;;4.07;;
52564;SDS011;38460;53.106;7.004;2023-03-14T04:58:06;9.57;;;4.22;;
52564;SDS011;38460;53.106;7.004;2023-03-14T05:00:32;11.02;;;3.88;;
52564;SDS011;38460;53.106;7.004;2023-03-14T05:02:57;8.25;;;4.45;;
52564;SDS011;38460;53.106;7.004;2023-03-14T05:05:23;10.45;;;4.00;;
52564;SDS011;38460;53.106;7.004;2023-03-14T05:07:49;8.80;;;3.70;;
52564;SDS011;38460;53.106;7.004;2023-03-14T05:10:15;8.55;;;3.50;;
52564;SDS011;38460;53.106;7.004;2023-03-14T05:12:41;7.03;;;3.97;;
52564;SDS011;38460;53.106;7.004;2023-03-14T05:15:07;8.73;;;3.30;;
52564;SDS011;38460;53.106;7.004;2023-03-14T05:17:34;6.72;;;3.15;;
52564;SDS011;38460;53.106;7.004;2023-03-14T05:20:00;8.68;;;3.67;;
52564;SDS011;38460;53.106;7.004;2023-03-14T05:22:26;11.95;;;4.70;;
52564;SDS011;38460;53.106;7.004;2023-03-14T05:24:51;13.30;;;4.80;;
52564;SDS011;38460;53.106;7.004;2023-03-14T05:27:21;9.20;;;4.10;;
52564;SDS011;38460;53.106;7.004;2023-03-14T05:29:47;8.95;;;3.88;;
52564;SDS011;38460;53.106;7.004;2023-03-14T05:32:13;8.57;;;4.40;;
52564;SDS011;38460;53.106;7.004;2023-03-14T05:34:39;9.82;;;4.85;;
52564;SDS011;38460;53.106;7.004;2023-03-14T05:37:05;9.73;;;4.72;;
52564;SDS011;38460;53.106;7.004;2023-03-14T05:39:30;7.82;;;4.22;;
52564;SDS011;38460;53.106;7.004;2023-03-14T05:41:56;8.55;;;4.38;;
52564;SDS011;38460;53.106;7.004;2023-03-14T05:44:22;9.55;;;5.80;;
52564;SDS011;38460;53.106;7.004;2023-03-14T05:46:47;11.57;;;5.93;;
52564;SDS011;38460;53.106;7.004;2023-03-14T05:49:13;8.65;;;4.60;;
52564;SDS011;38460;53.106;7.004;2023-03-14T05:51:39;11.40;;;5.32;;
52564;SDS011;38460;53.106;7.004;2023-03-14T05:54:05;9.95;;;4.93;;
52564;SDS011;38460;53.106;7.004;2023-03-14T05:56:31;12.15;;;6.05;;
52564;SDS011;38460;53.106;7.004;2023-03-14T05:58:57;11.18;;;5.97;;
52564;SDS011;38460;53.106;7.004;2023-03-14T06:01:22;11.63;;;6.03;;
52564;SDS011;38460;53.106;7.004;2023-03-14T06:03:48;10.68;;;4.90;;
52564;SDS011;38460;53.106;7.004;2023-03-14T06:06:14;11.68;;;6.18;;
52564;SDS011;38460;53.106;7.004;2023-03-14T06:08:41;11.02;;;5.25;;
52564;SDS011;38460;53.106;7.004;2023-03-14T06:11:07;11.00;;;5.07;;
52564;SDS011;38460;53.106;7.004;2023-03-14T06:13:34;13.52;;;5.30;;
52564;SDS011;38460;53.106;7.004;2023-03-14T06:15:59;9.80;;;4.82;;
52564;SDS011;38460;53.106;7.004;2023-03-14T06:18:25;14.57;;;6.38;;
52564;SDS011;38460;53.106;7.004;2023-03-14T06:20:54;11.05;;;6.25;;
52564;SDS011;38460;53.106;7.004;2023-03-14T06:23:20;10.20;;;5.38;;
52564;SDS011;38460;53.106;7.004;2023-03-14T06:25:47;8.85;;;5.00;;
52564;SDS011;38460;53.106;7.004;2023-03-14T06:28:12;9.75;;;4.63;;
52564;SDS011;38460;53.106;7.004;2023-03-14T06:30:38;8.35;;;4.55;;
52564;SDS011;38460;53.106;7.004;2023-03-14T06:33:04;10.38;;;4.57;;
52564;SDS011;38460;53.106;7.004;2023-03-14T06:35:29;10.80;;;4.43;;
52564;SDS011;38460;53.106;7.004;2023-03-14T06:37:55;13.77;;;3.90;;
52564;SDS011;38460;53.106;7.004;2023-03-14T06:40:21;5.57;;;3.38;;
52564;SDS011;38460;53.106;7.004;2023-03-14T06:42:47;11.18;;;4.50;;
52564;SDS011;38460;53.106;7.004;2023-03-14T06:45:13;8.60;;;3.72;;
52564;SDS011;38460;53.106;7.004;2023-03-14T06:47:39;6.63;;;3.65;;
52564;SDS011;38460;53.106;7.004;2023-03-14T06:50:05;5.18;;;2.92;;
52564;SDS011;38460;53.106;7.004;2023-03-14T06:52:32;8.35;;;3.15;;
52564;SDS011;38460;53.106;7.004;2023-03-14T06:54:58;5.63;;;2.72;;
52564;SDS011;38460;53.106;7.004;2023-03-14T06:57:28;6.93;;;2.75;;
52564;SDS011;38460;53.106;7.004;2023-03-14T06:59:54;7.20;;;2.50;;
52564;SDS011;38460;53.106;7.004;2023-03-14T07:02:20;4.65;;;2.30;;
52564;SDS011;38460;53.106;7.004;2023-03-14T07:04:47;6.43;;;2.80;;
52564;SDS011;38460;53.106;7.004;2023-03-14T07:07:12;7.85;;;3.58;;
52564;SDS011;38460;53.106;7.004;2023-03-14T07:09:38;6.57;;;3.08;;
52564;SDS011;38460;53.106;7.004;2023-03-14T07:12:04;5.25;;;1.90;;
52564;SDS011;38460;53.106;7.004;2023-03-14T07:14:30;4.50;;;1.00;;
52564;SDS011;38460;53.106;7.004;2023-03-14T07:16:56;3.28;;;1.30;;
52564;SDS011;38460;53.106;7.004;2023-03-14T07:19:22;5.25;;;2.03;;
52564;SDS011;38460;53.106;7.004;2023-03-14T07:21:48;2.28;;;1.10;;
52564;SDS011;38460;53.106;7.004;2023-03-14T07:24:13;5.57;;;1.75;;
52564;SDS011;38460;53.106;7.004;2023-03-14T07:26:39;3.78;;;1.40;;
52564;SDS011;38460;53.106;7.004;2023-03-14T07:29:05;8.63;;;2.40;;
52564;SDS011;38460;53.106;7.004;2023-03-14T07:31:31;6.70;;;1.40;;
52564;SDS011;38460;53.106;7.004;2023-03-14T07:33:56;6.65;;;2.00;;
52564;SDS011;38460;53.106;7.004;2023-03-14T07:36:22;6.05;;;1.70;;
52564;SDS011;38460;53.106;7.004;2023-03-14T07:38:48;7.43;;;2.22;;
52564;SDS011;38460;53.106;7.004;2023-03-14T07:41:14;7.90;;;1.83;;
52564;SDS011;38460;53.106;7.004;2023-03-14T07:43:40;8.00;;;2.00;;
52564;SDS011;38460;53.106;7.004;2023-03-14T07:46:06;10.13;;;1.85;;
52564;SDS011;38460;53.106;7.004;2023-03-14T07:48:32;7.68;;;2.33;;
52564;SDS011;38460;53.106;7.004;2023-03-14T07:50:58;8.52;;;2.45;;
52564;SDS011;38460;53.106;7.004;2023-03-14T07:53:24;5.35;;;1.45;;
52564;SDS011;38460;53.106;7.004;2023-03-14T07:55:51;10.20;;;2.03;;
52564;SDS011;38460;53.106;7.004;2023-03-14T07:58:18;7.78;;;1.80;;
52564;SDS011;38460;53.106;7.004;2023-03-14T08:00:44;3.60;;;1.10;;
52564;SDS011;38460;53.106;7.004;2023-03-14T08:03:10;4.88;;;1.15;;
52564;SDS011;38460;53.106;7.004;2023-03-14T08:05:36;4.88;;;1.10;;
52564;SDS011;38460;53.106;7.004;2023-03-14T08:08:03;5.63;;;0.90;;
52564;SDS011;38460;53.106;7.004;2023-03-14T08:10:29;5.75;;;1.25;;
52564;SDS011;38460;53.106;7.004;2023-03-14T08:12:56;3.95;;;0.98;;
52564;SDS011;38460;53.106;7.004;2023-03-14T08:15:23;2.80;;;1.10;;
52564;SDS011;38460;53.106;7.004;2023-03-14T08:17:50;3.55;;;1.17;;
52564;SDS011;38460;53.106;7.004;2023-03-14T08:20:16;3.38;;;1.42;;
52564;SDS011;38460;53.106;7.004;2023-03-14T08:22:43;3.08;;;0.90;;
52564;SDS011;38460;53.106;7.004;2023-03-14T08:25:09;3.80;;;1.05;;
52564;SDS011;38460;53.106;7.004;2023-03-14T08:27:35;4.55;;;1.52;;
52564;SDS011;38460;53.106;7.004;2023-03-14T08:30:04;3.30;;;1.10;;
52564;SDS011;38460;53.106;7.004;2023-03-14T08:32:31;3.35;;;1.02;;
52564;SDS011;38460;53.106;7.004;2023-03-14T08:34:57;4.30;;;1.77;;
52564;SDS011;38460;53.106;7.004;2023-03-14T08:37:23;4.75;;;1.10;;
52564;SDS011;38460;53.106;7.004;2023-03-14T08:39:50;3.15;;;1.10;;
52564;SDS011;38460;53.106;7.004;2023-03-14T08:42:16;6.03;;;1.42;;
52564;SDS011;38460;53.106;7.004;2023-03-14T08:44:43;3.72;;;1.40;;
52564;SDS011;38460;53.106;7.004;2023-03-14T08:47:09;5.53;;;1.42;;
52564;SDS011;38460;53.106;7.004;2023-03-14T08:49:34;3.28;;;1.33;;
52564;SDS011;38460;53.106;7.004;2023-03-14T08:52:03;3.58;;;1.30;;
52564;SDS011;38460;53.106;7.004;2023-03-14T08:54:30;3.72;;;1.00;;
52564;SDS011;38460;53.106;7.004;2023-03-14T08:56:56;3.38;;;1.17;;
52564;SDS011;38460;53.106;7.004;2023-03-14T08:59:22;4.93;;;1.00;;
52564;SDS011;38460;53.106;7.004;2023-03-14T09:01:49;5.95;;;1.30;;
52564;SDS011;38460;53.106;7.004;2023-03-14T09:04:15;6.43;;;1.73;;
52564;SDS011;38460;53.106;7.004;2023-03-14T09:06:41;8.07;;;1.40;;
52564;SDS011;38460;53.106;7.004;2023-03-14T09:09:07;3.72;;;1.17;;
52564;SDS011;38460;53.106;7.004;2023-03-14T09:11:33;5.53;;;1.30;;
52564;SDS011;38460;53.106;7.004;2023-03-14T09:13:59;1.45;;;1.10;;
52564;SDS011;38460;53.106;7.004;2023-03-14T09:16:24;4.57;;;1.35;;
52564;SDS011;38460;53.106;7.004;2023-03-14T09:18:50;4.57;;;1.60;;
52564;SDS011;38460;53.106;7.004;2023-03-14T09:21:19;8.18;;;1.75;;
52564;SDS011;38460;53.106;7.004;2023-03-14T09:23:46;7.32;;;1.58;;
52564;SDS011;38460;53.106;7.004;2023-03-14T09:26:12;8.40;;;2.10;;
52564;SDS011;38460;53.106;7.004;2023-03-14T09:28:37;5.38;;;1.88;;
52564;SDS011;38460;53.106;7.004;2023-03-14T09:31:07;4.75;;;1.88;;
52564;SDS011;38460;53.106;7.004;2023-03-14T09:33:34;5.57;;;2.13;;
52564;SDS011;38460;53.106;7.004;2023-03-14T09:36:00;9.75;;;2.55;;
52564;SDS011;38460;53.106;7.004;2023-03-14T09:38:26;7.85;;;2.40;;
52564;SDS011;38460;53.106;7.004;2023-03-14T09:40:53;7.03;;;2.33;;
52564;SDS011;38460;53.106;7.004;2023-03-14T09:43:19;11.77;;;3.05;;
52564;SDS011;38460;53.106;7.004;2023-03-14T09:45:48;7.40;;;2.85;;
52564;SDS011;38460;53.106;7.004;2023-03-14T09:48:16;11.30;;;3.15;;
52564;SDS011;38460;53.106;7.004;2023-03-14T09:50:48;9.68;;;2.67;;
52564;SDS011;38460;53.106;7.004;2023-03-14T09:53:18;13.20;;;2.80;;
52564;SDS011;38460;53.106;7.004;2023-03-14T09:55:47;14.45;;;3.10;;
52564;SDS011;38460;53.106;7.004;2023-03-14T09:58:19;14.90;;;3.33;;
52564;SDS011;38460;53.106;7.004;2023-03-14T10:00:46;10.88;;;3.35;;
52564;SDS011;38460;53.106;7.004;2023-03-14T10:05:38;12.30;;;3.30;;
52564;SDS011;38460;53.106;7.004;2023-03-14T10:08:05;11.55;;;3.42;;
52564;SDS011;38460;53.106;7.004;2023-03-14T10:10:31;15.63;;;3.40;;
52564;SDS011;38460;53.106;7.004;2023-03-14T10:12:59;16.17;;;4.40;;
52564;SDS011;38460;53.106;7.004;2023-03-14T10:15:47;11.50;;;2.50;;
52564;SDS011;38460;53.106;7.004;2023-03-14T10:18:17;11.38;;;3.35;;
52564;SDS011;38460;53.106;7.004;2023-03-14T10:20:43;9.40;;;2.90;;
52564;SDS011;38460;53.106;7.004;2023-03-14T10:25:44;13.10;;;3.65;;
52564;SDS011;38460;53.106;7.004;2023-03-14T10:30:56;16.27;;;3.75;;
52564;SDS011;38460;53.106;7.004;2023-03-14T10:33:23;19.58;;;4.32;;
52564;SDS011;38460;53.106;7.004;2023-03-14T10:38:26;9.98;;;3.40;;
52564;SDS011;38460;53.106;7.004;2023-03-14T10:40:56;16.05;;;3.65;;
52564;SDS011;38460;53.106;7.004;2023-03-14T10:43:25;13.23;;;2.88;;
52564;SDS011;38460;53.106;7.004;2023-03-14T10:46:15;12.02;;;4.35;;
52564;SDS011;38460;53.106;7.004;2023-03-14T10:48:43;10.13;;;2.75;;
52564;SDS011;38460;53.106;7.004;2023-03-14T10:56:13;11.02;;;3.38;;
52564;SDS011;38460;53.106;7.004;2023-03-14T10:58:42;8.93;;;2.78;;
52564;SDS011;38460;53.106;7.004;2023-03-14T11:07:09;14.20;;;3.00;;
52564;SDS011;38460;53.106;7.004;2023-03-14T11:15:05;9.98;;;2.90;;
52564;SDS011;38460;53.106;7.004;2023-03-14T11:36:27;8.75;;;2.67;;
52564;SDS011;38460;53.106;7.004;2023-03-14T11:38:58;8.65;;;2.72;;
52564;SDS011;38460;53.106;7.004;2023-03-14T11:44:24;6.68;;;1.88;;
52564;SDS011;38460;53.106;7.004;2023-03-14T11:47:02;7.23;;;1.77;;
52564;SDS011;38460;53.106;7.004;2023-03-14T11:49:43;5.65;;;1.75;;
52564;SDS011;38460;53.106;7.004;2023-03-14T11:54:55;7.38;;;1.92;;
52564;SDS011;38460;53.106;7.004;2023-03-14T11:57:37;8.07;;;2.25;;
52564;SDS011;38460;53.106;7.004;2023-03-14T12:02:48;6.80;;;1.83;;
52564;SDS011;38460;53.106;7.004;2023-03-14T12:14:27;5.15;;;1.45;;
52564;SDS011;38460;53.106;7.004;2023-03-14T12:16:56;4.87;;;1.90;;
52564;SDS011;38460;53.106;7.004;2023-03-14T12:19:29;7.05;;;2.00;;
52564;SDS011;38460;53.106;7.004;2023-03-14T12:24:26;4.80;;;1.65;;
52564;SDS011;38460;53.106;7.004;2023-03-14T12:26:57;5.30;;;1.77;;
52564;SDS011;38460;53.106;7.004;2023-03-14T12:29:25;6.90;;;1.92;;
52564;SDS011;38460;53.106;7.004;2023-03-14T12:32:36;6.35;;;2.17;;
52564;SDS011;38460;53.106;7.004;2023-03-14T12:34:49;4.45;;;1.80;;
52564;SDS011;38460;53.106;7.004;2023-03-14T12:42:58;9.63;;;2.28;;
52564;SDS011;38460;53.106;7.004;2023-03-14T12:53:30;12.02;;;3.45;;
52564;SDS011;38460;53.106;7.004;2023-03-14T12:59:43;7.22;;;1.88;;
52564;SDS011;38460;53.106;7.004;2023-03-14T13:01:54;8.75;;;2.42;;
52564;SDS011;38460;53.106;7.004;2023-03-14T13:04:44;6.18;;;2.15;;
52564;SDS011;38460;53.106;7.004;2023-03-14T13:07:33;8.32;;;2.38;;
52564;SDS011;38460;53.106;7.004;2023-03-14T13:15:22;7.85;;;2.67;;
52564;SDS011;38460;53.106;7.004;2023-03-14T13:17:52;10.32;;;2.70;;
52564;SDS011;38460;53.106;7.004;2023-03-14T13:20:26;6.10;;;2.38;;
52564;SDS011;38460;53.106;7.004;2023-03-14T13:22:59;6.63;;;2.05;;
52564;SDS011;38460;53.106;7.004;2023-03-14T13:25:28;9.05;;;1.85;;
52564;SDS011;38460;53.106;7.004;2023-03-14T13:27:55;3.72;;;1.45;;
52564;SDS011;38460;53.106;7.004;2023-03-14T13:30:25;3.83;;;1.58;;
52564;SDS011;38460;53.106;7.004;2023-03-14T13:32:53;7.32;;;1.88;;
52564;SDS011;38460;53.106;7.004;2023-03-14T13:35:28;7.15;;;1.73;;
52564;SDS011;38460;53.106;7.004;2023-03-14T13:38:02;5.00;;;1.75;;
52564;SDS011;38460;53.106;7.004;2023-03-14T13:40:29;6.15;;;1.58;;
52564;SDS011;38460;53.106;7.004;2023-03-14T13:43:04;4.40;;;1.27;;
52564;SDS011;38460;53.106;7.004;2023-03-14T13:45:47;3.13;;;1.13;;
52564;SDS011;38460;53.106;7.004;2023-03-14T13:48:13;9.77;;;2.97;;
52564;SDS011;38460;53.106;7.004;2023-03-14T13:50:44;7.63;;;2.28;;
52564;SDS011;38460;53.106;7.004;2023-03-14T13:53:18;4.90;;;1.95;;
52564;SDS011;38460;53.106;7.004;2023-03-14T13:55:44;8.90;;;2.88;;
52564;SDS011;38460;53.106;7.004;2023-03-14T13:58:19;5.00;;;1.65;;
52564;SDS011;38460;53.106;7.004;2023-03-14T14:01:00;7.32;;;2.13;;
52564;SDS011;38460;53.106;7.004;2023-03-14T14:03:36;6.50;;;1.80;;
52564;SDS011;38460;53.106;7.004;2023-03-14T14:06:05;3.08;;;1.25;;
52564;SDS011;38460;53.106;7.004;2023-03-14T14:08:57;3.78;;;1.30;;
52564;SDS011;38460;53.106;7.004;2023-03-14T14:11:37;4.10;;;1.35;;
52564;SDS011;38460;53.106;7.004;2023-03-14T14:14:16;3.15;;;1.55;;
52564;SDS011;38460;53.106;7.004;2023-03-14T14:16:46;4.57;;;1.55;;
52564;SDS011;38460;53.106;7.004;2023-03-14T14:19:14;5.72;;;1.92;;
52564;SDS011;38460;53.106;7.004;2023-03-14T14:21:41;5.53;;;1.30;;
52564;SDS011;38460;53.106;7.004;2023-03-14T14:24:12;4.55;;;1.60;;
52564;SDS011;38460;53.106;7.004;2023-03-14T14:26:41;7.32;;;1.95;;
52564;SDS011;38460;53.106;7.004;2023-03-14T14:29:32;8.60;;;2.22;;
52564;SDS011;38460;53.106;7.004;2023-03-14T14:32:00;3.78;;;1.58;;
52564;SDS011;38460;53.106;7.004;2023-03-14T14:34:26;8.52;;;2.20;;
52564;SDS011;38460;53.106;7.004;2023-03-14T14:36:52;7.80;;;1.70;;
52564;SDS011;38460;53.106;7.004;2023-03-14T14:39:23;4.85;;;1.95;;
52564;SDS011;38460;53.106;7.004;2023-03-14T14:41:51;7.85;;;1.80;;
52564;SDS011;38460;53.106;7.004;2023-03-14T14:44:18;6.72;;;1.77;;
52564;SDS011;38460;53.106;7.004;2023-03-14T14:46:54;3.38;;;1.80;;
52564;SDS011;38460;53.106;7.004;2023-03-14T14:49:21;7.43;;;1.90;;
52564;SDS011;38460;53.106;7.004;2023-03-14T14:52:02;6.70;;;1.98;;
52564;SDS011;38460;53.106;7.004;2023-03-14T14:54:37;8.40;;;2.10;;
52564;SDS011;38460;53.106;7.004;2023-03-14T14:57:12;6.22;;;1.70;;
52564;SDS011;38460;53.106;7.004;2023-03-14T14:59:47;8.77;;;2.22;;
52564;SDS011;38460;53.106;7.004;2023-03-14T15:02:23;6.03;;;1.42;;
52564;SDS011;38460;53.106;7.004;2023-03-14T15:05:15;4.93;;;1.58;;
52564;SDS011;38460;53.106;7.004;2023-03-14T15:07:46;6.57;;;1.58;;
52564;SDS011;38460;53.106;7.004;2023-03-14T15:10:16;4.85;;;1.40;;
52564;SDS011;38460;53.106;7.004;2023-03-14T15:12:43;6.60;;;2.33;;
52564;SDS011;38460;53.106;7.004;2023-03-14T15:15:09;4.80;;;2.38;;
52564;SDS011;38460;53.106;7.004;2023-03-14T15:17:37;7.82;;;2.20;;
52564;SDS011;38460;53.106;7.004;2023-03-14T15:20:03;4.53;;;1.52;;
52564;SDS011;38460;53.106;7.004;2023-03-14T15:22:31;5.97;;;1.75;;
52564;SDS011;38460;53.106;7.004;2023-03-14T15:24:57;9.43;;;1.92;;
52564;SDS011;38460;53.106;7.004;2023-03-14T15:27:23;7.13;;;2.10;;
52564;SDS011;38460;53.106;7.004;2023-03-14T15:29:56;7.95;;;1.70;;
52564;SDS011;38460;53.106;7.004;2023-03-14T15:32:22;7.60;;;2.22;;
52564;SDS011;38460;53.106;7.004;2023-03-14T15:34:47;6.15;;;1.88;;
52564;SDS011;38460;53.106;7.004;2023-03-14T16:16:42;5.05;;;1.42;;
52564;SDS011;38460;53.106;7.004;2023-03-14T16:19:08;6.13;;;1.85;;
52564;SDS011;38460;53.106;7.004;2023-03-14T16:21:35;6.40;;;1.80;;
52564;SDS011;38460;53.106;7.004;2023-03-14T16:24:03;7.20;;;1.85;;
52564;SDS011;38460;53.106;7.004;2023-03-14T16:26:31;6.43;;;2.00;;
52564;SDS011;38460;53.106;7.004;2023-03-14T16:28:59;7.75;;;1.65;;
52564;SDS011;38460;53.106;7.004;2023-03-14T16:31:25;6.53;;;1.55;;
52564;SDS011;38460;53.106;7.004;2023-03-14T16:33:51;7.15;;;2.13;;
52564;SDS011;38460;53.106;7.004;2023-03-14T16:36:16;4.68;;;2.20;;
52564;SDS011;38460;53.106;7.004;2023-03-14T16:38:43;8.02;;;1.50;;
52564;SDS011;38460;53.106;7.004;2023-03-14T16:41:17;4.43;;;1.67;;
52564;SDS011;38460;53.106;7.004;2023-03-14T16:43:44;4.05;;;1.40;;
52564;SDS011;38460;53.106;7.004;2023-03-14T16:46:13;5.47;;;2.03;;
52564;SDS011;38460;53.106;7.004;2023-03-14T16:48:41;6.68;;;1.90;;
52564;SDS011;38460;53.106;7.004;2023-03-14T16:51:07;5.70;;;1.90;;
52564;SDS011;38460;53.106;7.004;2023-03-14T16:53:33;4.88;;;1.20;;
52564;SDS011;38460;53.106;7.004;2023-03-14T16:55:59;3.97;;;1.30;;
52564;SDS011;38460;53.106;7.004;2023-03-14T16:58:25;4.25;;;1.20;;
52564;SDS011;38460;53.106;7.004;2023-03-14T17:00:52;5.90;;;1.60;;
52564;SDS011;38460;53.106;7.004;2023-03-14T17:03:19;5.50;;;2.15;;